Time;durP1;ratioP1;P1;durP2;ratioP2;P2;SDS_P1;SDS_P2;PMS_P1;PMS_P2;Temp;Humidity;BMP_temperature;BMP_pressure;BME280_temperature;BME280_humidity;BME280_pressure;Samples;Min_cycle;Max_cycle;Signal;HPM_P1;HPM_P2
2023/12/28 00:03:50;;;;;;;8.65;4.97;;;;;;;6.08;71.69;100256.38;10418581;28;20148;-65
2023/12/28 00:08:51;;;;;;;9.98;4.05;;;;;;;6.06;72.25;100262.81;10418211;28;20053;-67
2023/12/28 00:14:04;;;;;;;11.52;5.43;;;;;;;6.05;72.13;100266.50;10418485;28;20049;-66
2023/12/28 00:19:06;;;;;;;11.38;5.68;;;;;;;6.11;72.04;100242.69;10421610;28;20354;-66
2023/12/28 00:24:08;;;;;;;15.43;7.30;;;;;;;6.20;72.79;100248.13;10417712;28;20438;-66
2023/12/28 00:29:10;;;;;;;12.95;5.78;;;;;;;6.35;72.81;100247.47;10417289;28;20464;-64
2023/12/28 00:34:11;;;;;;;9.32;4.75;;;;;;;6.48;72.93;100249.78;10420177;28;20041;-66
2023/12/28 00:39:13;;;;;;;11.48;5.45;;;;;;;6.57;72.36;100241.84;10418642;28;20585;-67
2023/12/28 00:44:14;;;;;;;11.38;5.20;;;;;;;6.70;72.42;100236.94;10415594;28;20138;-67
2023/12/28 00:49:16;;;;;;;10.45;5.22;;;;;;;6.74;73.35;100231.13;10413625;28;20045;-66
2023/12/28 00:54:17;;;;;;;9.48;4.15;;;;;;;6.83;72.91;100241.88;10421687;28;20059;-66
2023/12/28 00:59:19;;;;;;;10.65;3.90;;;;;;;7.01;72.12;100233.84;10412510;28;20073;-69
2023/12/28 01:04:23;;;;;;;9.57;4.63;;;;;;;7.12;72.43;100236.28;10423199;28;20056;-69
2023/12/28 01:09:24;;;;;;;10.43;4.35;;;;;;;7.34;72.07;100249.09;10414031;28;20138;-70
2023/12/28 01:14:25;;;;;;;7.50;3.70;;;;;;;7.44;71.57;100253.50;10424109;28;20492;-66
2023/12/28 01:19:27;;;;;;;5.80;2.97;;;;;;;7.61;71.58;100255.28;10418877;28;20469;-69
2023/12/28 01:24:28;;;;;;;9.27;3.85;;;;;;;7.73;71.35;100272.75;10417026;28;20075;-68
2023/12/28 01:29:30;;;;;;;8.05;3.83;;;;;;;7.88;71.21;100266.81;10419578;28;20049;-67
2023/12/28 01:34:31;;;;;;;14.43;3.90;;;;;;;7.95;71.03;100276.69;10422382;28;20054;-69
2023/12/28 01:39:33;;;;;;;8.07;3.35;;;;;;;8.01;70.15;100285.91;10422024;28;20566;-69
2023/12/28 01:44:34;;;;;;;7.80;3.42;;;;;;;8.04;70.14;100284.78;10417550;28;20042;-67
2023/12/28 01:49:36;;;;;;;5.10;3.28;;;;;;;8.12;70.21;100287.47;10419629;28;20045;-68
2023/12/28 01:54:39;;;;;;;8.05;3.00;;;;;;;8.17;69.69;100311.06;10420461;28;20261;-69
2023/12/28 01:59:41;;;;;;;6.22;2.85;;;;;;;8.21;69.23;100291.00;10419835;28;20045;-69
2023/12/28 02:04:43;;;;;;;5.70;2.60;;;;;;;8.31;68.92;100287.22;10422418;28;20052;-59
2023/12/28 02:09:44;;;;;;;9.88;3.40;;;;;;;8.33;68.65;100292.38;10424298;28;20056;-59
2023/12/28 02:14:46;;;;;;;7.72;3.30;;;;;;;8.43;68.24;100319.06;10420896;28;20144;-61
2023/12/28 02:19:54;;;;;;;4.82;2.05;;;;;;;8.54;67.70;100310.72;10420187;28;20053;-61
2023/12/28 02:25:07;;;;;;;5.20;2.30;;;;;;;8.63;67.47;100339.22;10419966;28;20044;-63
2023/12/28 02:30:10;;;;;;;6.05;2.22;;;;;;;8.67;67.01;100327.19;10420925;28;20033;-59
2023/12/28 02:35:34;;;;;;;5.82;2.25;;;;;;;8.68;66.93;100322.66;10417043;28;20046;-62
2023/12/28 02:40:38;;;;;;;4.13;2.22;;;;;;;8.68;66.82;100312.75;10429392;28;20047;-63
2023/12/28 02:45:39;;;;;;;3.78;2.05;;;;;;;8.77;66.39;100315.44;10419620;28;20054;-59
2023/12/28 02:50:41;;;;;;;4.03;2.20;;;;;;;8.84;66.10;100311.13;10421352;28;20037;-59
2023/12/28 02:55:43;;;;;;;4.90;2.30;;;;;;;8.89;65.71;100314.97;10421842;28;20048;-60
2023/12/28 03:00:44;;;;;;;10.32;2.08;;;;;;;8.90;65.45;100299.72;10421077;28;20041;-61
2023/12/28 03:05:46;;;;;;;5.72;2.13;;;;;;;8.90;65.62;100321.16;10426108;28;20035;-60
2023/12/28 03:10:47;;;;;;;6.22;2.20;;;;;;;8.93;65.39;100305.59;10418582;28;20037;-61
2023/12/28 03:15:48;;;;;;;4.47;2.03;;;;;;;9.00;65.13;100302.25;10415494;28;20313;-60
2023/12/28 03:20:50;;;;;;;5.07;2.22;;;;;;;9.02;64.93;100298.38;10419762;28;21091;-60
2023/12/28 03:25:51;;;;;;;4.50;2.30;;;;;;;9.05;64.96;100302.59;10416872;28;20365;-67
2023/12/28 03:30:53;;;;;;;3.20;2.28;;;;;;;9.05;64.78;100298.06;10414056;28;20048;-70
2023/12/28 03:35:55;;;;;;;4.55;2.17;;;;;;;9.12;64.54;100295.53;10412231;28;20041;-66
2023/12/28 03:40:58;;;;;;;4.07;2.17;;;;;;;9.16;64.36;100301.41;10420614;28;20049;-69
2023/12/28 03:45:59;;;;;;;3.53;1.50;;;;;;;9.17;64.31;100311.97;10420263;28;20385;-65
2023/12/28 03:51:00;;;;;;;3.42;1.38;;;;;;;9.25;64.09;100309.28;10417139;28;20229;-66
2023/12/28 03:56:02;;;;;;;4.03;1.33;;;;;;;9.28;64.14;100342.97;10418628;28;20073;-69
2023/12/28 04:01:03;;;;;;;4.18;2.28;;;;;;;9.44;63.92;100316.16;10415647;28;20045;-70
2023/12/28 04:06:05;;;;;;;3.58;1.35;;;;;;;9.43;64.19;100284.13;10420724;28;20041;-70
2023/12/28 04:11:07;;;;;;;5.55;2.45;;;;;;;9.47;64.47;100290.81;10419871;28;20057;-66
2023/12/28 04:16:12;;;;;;;4.05;1.63;;;;;;;9.57;64.48;100283.41;10415139;28;20492;-70
2023/12/28 04:21:14;;;;;;;4.43;1.90;;;;;;;9.62;64.90;100277.56;10409352;28;20045;-68
2023/12/28 04:26:19;;;;;;;3.70;1.50;;;;;;;9.65;64.86;100285.25;10416792;28;20040;-69
2023/12/28 04:31:20;;;;;;;3.60;2.00;;;;;;;9.74;64.88;100289.59;10415240;28;20052;-70
2023/12/28 04:36:22;;;;;;;3.15;1.60;;;;;;;9.73;64.71;100283.41;10416794;28;20140;-64
2023/12/28 04:41:24;;;;;;;2.80;1.30;;;;;;;9.82;64.96;100304.84;10415134;28;20042;-64
2023/12/28 04:46:25;;;;;;;4.10;1.67;;;;;;;9.92;65.08;100340.38;10413034;28;20068;-63
2023/12/28 04:51:26;;;;;;;3.22;1.50;;;;;;;10.05;64.93;100348.75;10410592;28;20056;-63
2023/12/28 04:56:28;;;;;;;2.95;1.48;;;;;;;10.16;64.58;100358.25;10411130;28;20053;-64
2023/12/28 05:01:32;;;;;;;7.22;1.73;;;;;;;10.23;64.73;100380.75;10415581;28;20037;-63
2023/12/28 05:06:34;;;;;;;2.42;1.45;;;;;;;10.27;65.23;100378.56;10415755;28;20133;-63
2023/12/28 05:11:35;;;;;;;4.10;1.95;;;;;;;10.29;65.03;100380.06;10413488;28;20140;-63
2023/12/28 05:16:37;;;;;;;2.95;1.58;;;;;;;10.41;64.96;100372.47;10409867;28;20037;-63
2023/12/28 05:21:38;;;;;;;3.63;1.73;;;;;;;10.41;65.02;100371.66;10409019;28;20072;-64
2023/12/28 05:26:40;;;;;;;3.55;1.70;;;;;;;10.49;64.98;100375.13;10413319;28;20136;-63
2023/12/28 05:31:41;;;;;;;3.50;1.80;;;;;;;10.51;65.50;100383.84;10412369;28;20041;-63
2023/12/28 05:36:45;;;;;;;3.80;1.38;;;;;;;10.52;65.92;100372.09;10413875;28;20515;-63
2023/12/28 05:41:47;;;;;;;3.75;2.22;;;;;;;10.58;65.71;100380.47;10415474;28;20073;-63
2023/12/28 05:46:49;;;;;;;4.97;1.80;;;;;;;10.61;66.22;100385.50;10414678;28;20041;-69
2023/12/28 05:51:50;;;;;;;4.25;1.55;;;;;;;10.58;66.62;100373.22;10415401;28;20060;-68
2023/12/28 05:56:51;;;;;;;5.70;1.50;;;;;;;10.60;67.05;100376.59;10412565;28;20361;-68
2023/12/28 06:01:53;;;;;;;6.70;1.92;;;;;;;10.67;67.04;100374.88;10419386;28;20396;-70
2023/12/28 06:06:54;;;;;;;3.88;1.83;;;;;;;10.69;67.29;100382.78;10419561;28;20045;-63
2023/12/28 06:11:56;;;;;;;5.15;2.08;;;;;;;10.70;67.32;100377.22;10421291;28;20060;-67
2023/12/28 06:16:57;;;;;;;6.85;1.95;;;;;;;10.72;67.07;100366.28;10427729;28;20528;-68
2023/12/28 06:21:59;;;;;;;2.80;1.83;;;;;;;10.79;67.17;100348.44;10414947;28;20053;-70
2023/12/28 06:27:00;;;;;;;3.40;1.95;;;;;;;10.80;67.70;100351.94;10417726;28;20068;-67
2023/12/28 06:32:02;;;;;;;3.45;1.95;;;;;;;10.75;67.72;100347.13;10417365;28;20579;-70
2023/12/28 06:37:03;;;;;;;4.70;1.15;;;;;;;10.77;67.51;100352.31;10414503;28;20056;-70
2023/12/28 06:42:05;;;;;;;2.53;1.17;;;;;;;10.80;67.74;100358.19;10421186;28;20056;-68
2023/12/28 06:47:07;;;;;;;1.67;1.08;;;;;;;10.83;67.56;100365.06;10418088;28;20041;-67
2023/12/28 06:52:08;;;;;;;3.88;2.45;;;;;;;10.91;67.65;100363.13;10414445;28;20041;-69
2023/12/28 06:57:10;;;;;;;2.60;1.30;;;;;;;10.99;67.58;100367.63;10419542;28;20041;-63
2023/12/28 07:02:11;;;;;;;3.22;1.02;;;;;;;11.06;67.24;100376.66;10414493;28;20049;-63
2023/12/28 07:07:13;;;;;;;2.22;1.13;;;;;;;11.06;67.18;100386.59;10417160;28;20033;-63
2023/12/28 07:12:14;;;;;;;3.35;1.13;;;;;;;11.01;67.61;100392.50;10421067;28;20049;-64
2023/12/28 07:17:17;;;;;;;1.48;0.82;;;;;;;11.00;67.77;100392.66;10420661;28;20063;-64
2023/12/28 07:22:18;;;;;;;2.30;1.10;;;;;;;11.09;67.61;100395.13;10416723;28;20045;-67
2023/12/28 07:27:20;;;;;;;5.82;1.30;;;;;;;11.08;67.47;100385.41;10418009;28;20044;-64
2023/12/28 07:32:22;;;;;;;1.90;0.90;;;;;;;11.11;67.64;100411.09;10413477;28;20068;-65
2023/12/28 07:37:24;;;;;;;4.05;0.90;;;;;;;11.06;67.52;100424.25;10415437;28;20049;-65
2023/12/28 07:42:26;;;;;;;2.03;1.10;;;;;;;11.07;67.54;100432.13;10415296;28;20396;-66
2023/12/28 07:47:27;;;;;;;2.90;0.68;;;;;;;11.10;67.80;100421.03;10419168;28;20115;-65
2023/12/28 07:52:29;;;;;;;1.40;0.65;;;;;;;11.21;67.71;100429.69;10417224;28;20055;-66
2023/12/28 07:57:30;;;;;;;2.38;1.35;;;;;;;11.25;67.58;100418.41;10415695;28;20041;-66
2023/12/28 08:02:33;;;;;;;3.20;0.73;;;;;;;11.22;67.29;100421.47;10416050;28;20045;-65
2023/12/28 08:07:34;;;;;;;1.10;0.60;;;;;;;11.18;67.69;100416.63;10422925;28;20105;-70
2023/12/28 08:12:35;;;;;;;2.15;0.70;;;;;;;11.20;67.84;100401.97;10427376;28;20136;-67
2023/12/28 08:17:37;;;;;;;0.85;0.50;;;;;;;11.24;67.64;100395.22;10421053;28;20041;-69
2023/12/28 08:22:39;;;;;;;4.45;1.15;;;;;;;11.28;68.16;100387.63;10419206;28;20072;-71
2023/12/28 08:27:41;;;;;;;2.95;1.05;;;;;;;11.33;67.71;100395.97;10422673;28;20047;-70
2023/12/28 08:32:43;;;;;;;3.03;1.50;;;;;;;11.29;68.11;100397.34;10421578;28;20110;-71
2023/12/28 08:37:44;;;;;;;1.55;0.90;;;;;;;11.28;68.45;100393.00;10431929;28;20037;-70
2023/12/28 08:42:47;;;;;;;2.67;1.60;;;;;;;11.32;68.09;100408.59;10423684;28;20055;-68
2023/12/28 08:47:49;;;;;;;3.00;1.25;;;;;;;11.45;67.80;100416.09;10420940;28;20060;-71
2023/12/28 08:52:50;;;;;;;2.88;0.98;;;;;;;11.43;68.34;100415.44;10422115;28;20037;-68
2023/12/28 08:57:51;;;;;;;1.98;0.85;;;;;;;11.42;68.34;100412.91;10426251;28;20050;-70
2023/12/28 09:02:53;;;;;;;3.95;0.98;;;;;;;11.46;68.18;100416.91;10422600;28;20044;-70
2023/12/28 09:07:54;;;;;;;2.45;0.90;;;;;;;11.53;68.25;100409.78;10416430;28;20439;-70
2023/12/28 09:12:56;;;;;;;2.63;0.93;;;;;;;11.51;68.21;100422.56;10418207;28;20065;-71
2023/12/28 09:17:58;;;;;;;4.07;1.10;;;;;;;11.58;68.12;100423.53;10422282;28;20054;-67
2023/12/28 09:23:00;;;;;;;1.55;0.77;;;;;;;11.60;67.72;100426.88;10416840;28;20037;-66
2023/12/28 09:28:01;;;;;;;3.08;1.08;;;;;;;11.73;67.75;100437.06;10413841;28;20476;-69
2023/12/28 09:33:04;;;;;;;3.15;1.27;;;;;;;11.77;67.40;100432.13;10420021;28;20045;-69
2023/12/28 09:38:05;;;;;;;2.42;1.02;;;;;;;11.80;67.65;100432.59;10430853;28;20040;-69
2023/12/28 09:43:30;;;;;;;1.27;0.70;;;;;;;11.81;67.28;100439.69;10423869;28;20056;-69
2023/12/28 09:48:32;;;;;;;7.47;1.20;;;;;;;11.76;67.60;100434.00;10422624;28;20052;-70
2023/12/28 09:53:34;;;;;;;7.40;0.85;;;;;;;11.79;67.48;100441.72;10419459;28;20042;-70
2023/12/28 09:58:36;;;;;;;5.45;1.70;;;;;;;11.86;67.59;100456.13;10420035;28;20048;-69
2023/12/28 10:03:38;;;;;;;3.40;0.90;;;;;;;11.92;67.50;100467.22;10423003;28;20172;-69
2023/12/28 10:08:46;;;;;;;1.98;0.90;;;;;;;12.06;66.42;100453.78;10420031;28;20077;-69
2023/12/28 10:13:50;;;;;;;5.47;1.60;;;;;;;12.13;66.70;100461.16;10423584;28;20041;-70
2023/12/28 10:18:52;;;;;;;2.70;1.00;;;;;;;12.19;66.96;100465.81;10423149;28;20052;-70
2023/12/28 10:23:54;;;;;;;4.10;1.20;;;;;;;12.25;66.54;100446.19;10423030;28;20472;-68
2023/12/28 10:28:59;;;;;;;3.28;1.10;;;;;;;12.36;66.15;100442.19;10427343;28;20041;-66
2023/12/28 10:34:04;;;;;;;4.43;0.93;;;;;;;12.45;65.52;100443.78;10419133;28;20064;-65
2023/12/28 10:39:10;;;;;;;1.67;0.82;;;;;;;12.44;65.46;100444.78;10421695;28;20057;-65
2023/12/28 10:44:17;;;;;;;2.75;0.93;;;;;;;12.45;65.31;100446.47;10420930;28;20049;-65
2023/12/28 10:49:24;;;;;;;2.60;0.70;;;;;;;12.52;65.09;100441.16;10423347;28;20064;-65
2023/12/28 10:55:03;;;;;;;1.65;0.70;;;;;;;12.83;64.57;100440.97;10425127;28;20045;-66
2023/12/28 11:00:11;;;;;;;7.85;3.72;;;;;;;12.76;64.20;100424.69;10417567;28;20557;-66
2023/12/28 11:05:13;;;;;;;1.45;0.55;;;;;;;12.82;64.25;100439.31;10422055;28;20049;-66
2023/12/28 11:10:17;;;;;;;2.63;0.77;;;;;;;12.90;63.93;100437.31;10418767;28;20060;-65
2023/12/28 11:15:19;;;;;;;1.58;0.85;;;;;;;12.83;63.74;100444.47;10419058;28;20617;-66
2023/12/28 11:20:21;;;;;;;1.63;0.73;;;;;;;12.81;63.58;100443.84;10417039;28;20530;-65
2023/12/28 11:25:22;;;;;;;2.45;0.77;;;;;;;12.86;63.41;100444.13;10417979;28;20051;-64
2023/12/28 11:30:27;;;;;;;2.97;0.63;;;;;;;12.78;63.32;100433.44;10420705;28;20048;-66
2023/12/28 11:35:37;;;;;;;1.35;0.55;;;;;;;12.89;63.11;100432.09;10418724;28;20053;-67
2023/12/28 11:40:42;;;;;;;1.92;0.73;;;;;;;12.87;63.04;100423.38;10425816;28;20133;-68
2023/12/28 11:45:55;;;;;;;1.98;0.70;;;;;;;13.06;62.39;100411.97;10417394;28;20042;-70
2023/12/28 11:50:59;;;;;;;2.22;0.60;;;;;;;13.12;62.29;100404.16;10417119;28;20044;-69
2023/12/28 11:56:04;;;;;;;3.17;0.80;;;;;;;13.08;62.23;100403.69;10415628;28;20052;-69
2023/12/28 12:01:06;;;;;;;2.03;1.05;;;;;;;13.14;61.93;100388.59;10413458;28;20051;-69
2023/12/28 12:06:08;;;;;;;3.38;0.50;;;;;;;13.19;61.27;100384.31;10421544;28;20041;-68
2023/12/28 12:11:09;;;;;;;2.08;0.60;;;;;;;13.35;60.97;100366.19;10420775;28;20054;-69
2023/12/28 12:16:14;;;;;;;0.82;0.40;;;;;;;13.53;60.28;100357.63;10415790;28;20129;-70
2023/12/28 12:21:15;;;;;;;2.97;0.80;;;;;;;13.73;59.63;100347.81;10418018;28;20060;-70
2023/12/28 12:26:21;;;;;;;2.00;0.40;;;;;;;13.61;59.33;100347.50;10418360;28;20052;-68
2023/12/28 12:31:23;;;;;;;2.72;0.63;;;;;;;13.52;59.47;100347.84;10418208;28;20060;-70
2023/12/28 12:36:25;;;;;;;2.67;0.40;;;;;;;13.47;58.85;100335.78;10413265;28;20597;-69
2023/12/28 12:41:27;;;;;;;2.55;0.40;;;;;;;13.60;58.63;100332.31;10416862;28;20044;-70
2023/12/28 12:46:28;;;;;;;3.88;0.38;;;;;;;13.63;58.25;100326.53;10418458;28;20049;-69
2023/12/28 12:51:30;;;;;;;6.35;1.65;;;;;;;13.65;58.32;100326.34;10418942;28;20041;-70
2023/12/28 12:56:32;;;;;;;3.17;0.50;;;;;;;13.71;57.93;100311.22;10422085;28;20122;-70
2023/12/28 13:01:34;;;;;;;4.90;0.65;;;;;;;13.86;57.49;100311.94;10414703;28;20060;-71
2023/12/28 13:06:36;;;;;;;2.33;0.50;;;;;;;13.68;58.02;100309.72;10414081;28;20037;-71
2023/12/28 13:11:38;;;;;;;3.40;0.40;;;;;;;13.72;58.06;100302.06;10422189;28;20691;-67
2023/12/28 13:16:39;;;;;;;4.13;0.65;;;;;;;13.69;58.32;100306.03;10417112;28;20403;-69
2023/12/28 13:21:41;;;;;;;4.32;0.50;;;;;;;13.65;58.29;100312.84;10430093;28;20048;-70
2023/12/28 13:26:42;;;;;;;3.33;0.57;;;;;;;13.69;58.42;100303.31;10426979;28;20095;-69
2023/12/28 13:31:45;;;;;;;1.23;0.43;;;;;;;13.53;58.76;100309.84;10426337;28;20043;-70
2023/12/28 13:36:47;;;;;;;3.38;0.45;;;;;;;13.51;58.93;100302.97;10426949;28;20048;-70
2023/12/28 13:41:49;;;;;;;1.45;0.80;;;;;;;13.44;59.12;100297.53;10423623;28;20078;-69
2023/12/28 13:46:50;;;;;;;0.90;0.47;;;;;;;13.35;59.21;100288.75;10430289;28;20057;-70
2023/12/28 13:51:52;;;;;;;3.53;0.73;;;;;;;13.34;59.47;100305.13;10425686;28;20041;-70
2023/12/28 13:56:57;;;;;;;1.67;0.73;;;;;;;13.36;59.97;100295.78;10423912;28;20756;-66
2023/12/28 14:01:59;;;;;;;3.00;0.85;;;;;;;13.35;59.85;100302.25;10423375;28;20075;-66
2023/12/28 14:07:00;;;;;;;4.05;0.70;;;;;;;13.27;60.43;100305.88;10422416;28;20065;-66
2023/12/28 14:12:02;;;;;;;3.45;0.70;;;;;;;13.21;60.85;100300.41;10422510;28;20656;-66
2023/12/28 14:17:04;;;;;;;2.08;0.80;;;;;;;13.20;61.01;100294.19;10432900;28;20041;-67
2023/12/28 14:22:06;;;;;;;3.58;0.70;;;;;;;13.12;61.17;100286.22;10419113;28;20936;-66
2023/12/28 14:27:08;;;;;;;2.33;0.47;;;;;;;13.09;61.85;100275.81;10420758;28;20045;-66
2023/12/28 14:32:10;;;;;;;1.60;0.43;;;;;;;13.04;61.84;100278.28;10419263;28;20056;-66
2023/12/28 14:37:12;;;;;;;1.92;0.47;;;;;;;12.89;62.39;100272.94;10421376;28;20045;-65
2023/12/28 14:42:13;;;;;;;2.97;0.45;;;;;;;12.79;62.96;100284.03;10420739;28;20163;-65
2023/12/28 14:47:15;;;;;;;1.45;0.73;;;;;;;12.80;63.01;100293.00;10418581;28;20994;-67
2023/12/28 14:52:17;;;;;;;0.40;0.30;;;;;;;12.72;63.40;100285.84;10417050;28;20646;-66
2023/12/28 14:57:18;;;;;;;1.05;0.40;;;;;;;12.78;63.45;100285.09;10422735;28;20100;-66
2023/12/28 15:02:20;;;;;;;0.70;0.32;;;;;;;12.76;63.41;100289.84;10419635;28;20148;-66
2023/12/28 15:07:21;;;;;;;9.32;3.13;;;;;;;12.73;63.69;100287.50;10420312;28;20053;-67
2023/12/28 15:12:23;;;;;;;0.57;0.20;;;;;;;12.67;63.95;100281.00;10419738;28;20049;-70
2023/12/28 15:17:25;;;;;;;0.47;0.30;;;;;;;12.50;64.65;100293.91;10417226;28;20072;-69
2023/12/28 15:22:26;;;;;;;1.88;0.40;;;;;;;12.40;65.04;100298.78;10419106;28;20049;-70
2023/12/28 15:27:28;;;;;;;0.60;0.30;;;;;;;12.27;65.36;100293.22;10422837;28;20049;-68
2023/12/28 15:32:29;;;;;;;2.22;0.38;;;;;;;12.24;65.19;100302.53;10422403;28;20152;-67
2023/12/28 15:37:31;;;;;;;2.08;0.40;;;;;;;12.18;65.79;100294.34;10418967;28;20408;-66
2023/12/28 15:42:35;;;;;;;3.80;0.60;;;;;;;12.24;65.64;100304.34;10422502;28;20051;-67
2023/12/28 15:47:36;;;;;;;0.95;0.40;;;;;;;12.23;66.12;100302.72;10418162;28;20045;-66
2023/12/28 15:52:38;;;;;;;1.13;0.30;;;;;;;12.30;65.75;100304.47;10418933;28;20049;-67
2023/12/28 15:57:39;;;;;;;2.75;0.60;;;;;;;12.36;66.18;100307.41;10420075;28;20519;-67
2023/12/28 16:02:41;;;;;;;4.18;1.73;;;;;;;12.34;66.42;100304.06;10415437;28;20107;-65
2023/12/28 16:07:42;;;;;;;1.27;0.60;;;;;;;12.37;66.14;100304.53;10421663;28;20037;-67
2023/12/28 16:12:43;;;;;;;1.60;0.75;;;;;;;12.35;66.06;100301.19;10415943;28;20045;-66
2023/12/28 16:17:46;;;;;;;1.42;0.40;;;;;;;12.36;66.46;100294.78;10415592;28;20535;-63
2023/12/28 16:22:48;;;;;;;3.55;1.38;;;;;;;12.35;66.59;100293.09;10415611;28;20055;-64
2023/12/28 16:27:49;;;;;;;0.90;0.80;;;;;;;12.24;66.53;100289.06;10415506;28;20952;-66
2023/12/28 16:32:51;;;;;;;2.88;0.80;;;;;;;12.28;66.58;100284.09;10417325;28;20045;-67
2023/12/28 16:37:53;;;;;;;3.97;1.02;;;;;;;12.25;66.19;100281.78;10418081;28;20080;-67
2023/12/28 16:42:55;;;;;;;4.25;1.27;;;;;;;12.24;66.26;100274.72;10416714;28;20041;-66
2023/12/28 16:47:56;;;;;;;2.05;1.10;;;;;;;12.18;66.22;100279.00;10414764;28;20040;-66
2023/12/28 16:52:58;;;;;;;4.45;0.93;;;;;;;12.09;66.57;100278.28;10417830;28;20106;-65
2023/12/28 16:57:59;;;;;;;1.95;1.08;;;;;;;11.90;66.73;100276.97;10414755;28;20499;-65
2023/12/28 17:03:03;;;;;;;1.55;0.90;;;;;;;11.79;66.71;100279.28;10421585;28;20041;-68
2023/12/28 17:08:06;;;;;;;2.00;1.10;;;;;;;11.64;66.69;100274.72;10415946;28;20497;-67
2023/12/28 17:13:10;;;;;;;6.22;1.70;;;;;;;11.45;67.07;100267.19;10414318;28;20045;-68
2023/12/28 17:18:13;;;;;;;3.15;1.20;;;;;;;11.28;67.04;100271.91;10419556;28;20108;-67
2023/12/28 17:23:25;;;;;;;2.83;1.20;;;;;;;11.18;67.19;100276.72;10421105;28;20054;-65
2023/12/28 17:28:31;;;;;;;1.70;1.05;;;;;;;11.06;67.15;100281.69;10421921;28;20068;-68
2023/12/28 17:33:33;;;;;;;2.85;1.30;;;;;;;10.95;67.54;100274.88;10413873;28;20054;-68
2023/12/28 17:38:35;;;;;;;2.05;1.00;;;;;;;10.88;67.64;100290.03;10410019;28;20048;-64
2023/12/28 17:43:40;;;;;;;3.22;1.48;;;;;;;10.80;68.07;100282.91;10410069;28;20147;-66
2023/12/28 17:48:46;;;;;;;5.07;1.45;;;;;;;10.73;67.97;100268.47;10412423;28;20033;-69
2023/12/28 17:53:48;;;;;;;4.30;1.17;;;;;;;10.63;68.05;100274.09;10414996;28;20052;-70
2023/12/28 17:58:50;;;;;;;3.45;1.45;;;;;;;10.64;68.20;100272.22;10418924;28;20077;-71
2023/12/28 18:03:51;;;;;;;8.30;3.80;;;;;;;10.66;68.09;100271.06;10420375;28;20061;-70
2023/12/28 18:08:53;;;;;;;2.95;1.25;;;;;;;10.64;67.92;100288.38;10414053;28;20076;-68
2023/12/28 18:13:54;;;;;;;6.72;1.35;;;;;;;10.57;68.17;100276.66;10417096;28;20073;-68
2023/12/28 18:18:59;;;;;;;5.35;2.30;;;;;;;10.50;68.33;100268.47;10413204;28;20396;-66
2023/12/28 18:24:01;;;;;;;4.20;1.25;;;;;;;10.53;68.33;100265.44;10415767;28;20040;-68
2023/12/28 18:29:02;;;;;;;3.70;1.52;;;;;;;10.50;68.31;100268.47;10420568;28;20589;-71
2023/12/28 18:34:04;;;;;;;1.50;1.30;;;;;;;10.48;68.68;100276.69;10423438;28;20527;-67
2023/12/28 18:39:05;;;;;;;2.40;1.63;;;;;;;10.47;68.45;100275.03;10423805;28;20052;-70
2023/12/28 18:44:07;;;;;;;4.00;1.88;;;;;;;10.55;68.70;100284.06;10422261;28;20042;-69
2023/12/28 18:49:08;;;;;;;3.72;2.15;;;;;;;10.63;68.14;100274.09;10416485;28;20033;-64
2023/12/28 18:54:10;;;;;;;3.03;1.95;;;;;;;10.73;67.92;100275.72;10417647;28;20060;-64
2023/12/28 18:59:11;;;;;;;3.90;2.15;;;;;;;10.71;68.48;100270.50;10417501;28;20526;-64
2023/12/28 19:04:12;;;;;;;2.63;1.48;;;;;;;10.69;68.43;100272.53;10419936;28;20037;-64
2023/12/28 19:09:14;;;;;;;4.88;2.53;;;;;;;10.73;68.46;100279.25;10419625;28;20073;-64
2023/12/28 19:14:16;;;;;;;6.15;2.08;;;;;;;10.76;68.47;100276.19;10418684;28;20052;-64
2023/12/28 19:19:17;;;;;;;3.65;1.85;;;;;;;10.87;68.56;100285.69;10412232;28;20047;-64
2023/12/28 19:24:19;;;;;;;4.97;2.30;;;;;;;10.90;68.52;100272.72;10417482;28;20049;-64
2023/12/28 19:29:20;;;;;;;8.25;2.38;;;;;;;11.07;68.08;100288.72;10416796;28;20041;-65
2023/12/28 19:34:22;;;;;;;3.58;1.80;;;;;;;11.18;67.68;100288.31;10413193;28;20045;-65
2023/12/28 19:39:24;;;;;;;4.80;1.83;;;;;;;11.33;67.46;100299.09;10417068;28;20559;-64
2023/12/28 19:44:25;;;;;;;3.22;1.58;;;;;;;11.22;68.00;100299.53;10416940;28;20045;-65
2023/12/28 19:49:27;;;;;;;4.97;1.92;;;;;;;11.34;67.92;100291.88;10415284;28;20034;-64
2023/12/28 19:54:28;;;;;;;4.88;1.60;;;;;;;11.33;67.92;100301.78;10419352;28;20048;-64
2023/12/28 19:59:30;;;;;;;3.30;1.23;;;;;;;11.34;67.71;100295.41;10415243;28;20053;-69
2023/12/28 20:04:34;;;;;;;5.80;2.00;;;;;;;11.27;68.16;100297.13;10415525;28;20373;-70
2023/12/28 20:09:36;;;;;;;4.20;2.22;;;;;;;11.27;68.40;100289.88;10415013;28;20039;-70
2023/12/28 20:14:37;;;;;;;4.93;1.92;;;;;;;11.26;68.41;100282.84;10415291;28;20040;-70
2023/12/28 20:19:39;;;;;;;2.95;1.90;;;;;;;11.20;68.52;100280.88;10410667;28;20049;-69
2023/12/28 20:24:40;;;;;;;3.20;1.70;;;;;;;11.24;68.37;100286.75;10415788;28;20041;-70
2023/12/28 20:29:42;;;;;;;7.80;2.10;;;;;;;11.23;68.41;100272.44;10419827;28;20091;-69
2023/12/28 20:34:44;;;;;;;3.85;1.38;;;;;;;11.40;67.98;100269.59;10422103;28;20043;-69
2023/12/28 20:39:46;;;;;;;2.70;1.77;;;;;;;11.59;67.37;100270.91;10411910;28;20045;-68
2023/12/28 20:44:48;;;;;;;4.55;2.30;;;;;;;11.65;67.29;100265.63;10415038;28;20045;-70
2023/12/28 20:49:51;;;;;;;2.97;1.80;;;;;;;11.63;67.63;100264.13;10416703;28;20621;-70
2023/12/28 20:54:53;;;;;;;3.72;1.33;;;;;;;11.65;67.31;100271.03;10416183;28;20052;-67
2023/12/28 20:59:54;;;;;;;3.95;1.75;;;;;;;11.69;67.09;100264.25;10408026;28;20042;-69
2023/12/28 21:04:56;;;;;;;3.22;1.40;;;;;;;11.67;67.21;100251.97;10412723;28;20147;-61
2023/12/28 21:09:57;;;;;;;1.60;1.00;;;;;;;11.67;67.80;100254.66;10415492;28;20053;-61
2023/12/28 21:14:59;;;;;;;1.85;1.05;;;;;;;11.52;68.13;100268.97;10422753;28;20052;-61
2023/12/28 21:20:01;;;;;;;1.35;0.90;;;;;;;11.55;68.04;100258.84;10415724;28;20053;-60
2023/12/28 21:25:03;;;;;;;1.83;0.80;;;;;;;11.49;68.20;100263.09;10414096;28;20045;-61
2023/12/28 21:30:06;;;;;;;0.88;0.60;;;;;;;11.55;68.13;100264.22;10417607;28;20037;-61
2023/12/28 21:35:10;;;;;;;0.95;0.60;;;;;;;11.51;68.30;100261.06;10423215;28;20120;-60
2023/12/28 21:40:11;;;;;;;2.78;1.02;;;;;;;11.51;68.56;100258.38;10421401;28;20590;-61
2023/12/28 21:45:13;;;;;;;1.25;0.70;;;;;;;11.49;68.80;100255.88;10422353;28;20502;-60
2023/12/28 21:50:15;;;;;;;1.33;0.60;;;;;;;11.51;68.94;100253.84;10418973;28;20056;-63
2023/12/28 21:55:16;;;;;;;1.60;0.95;;;;;;;11.50;68.62;100245.94;10423075;28;20049;-60
2023/12/28 22:00:18;;;;;;;2.15;0.90;;;;;;;11.50;68.75;100252.16;10423629;28;20060;-61
2023/12/28 22:05:19;;;;;;;2.42;0.70;;;;;;;11.58;68.47;100250.41;10421164;28;20962;-63
2023/12/28 22:10:21;;;;;;;2.17;0.80;;;;;;;11.66;68.63;100251.16;10424377;28;20458;-60
2023/12/28 22:15:22;;;;;;;1.08;0.80;;;;;;;11.50;68.65;100254.84;10420648;28;20041;-67
2023/12/28 22:20:24;;;;;;;1.42;0.80;;;;;;;11.57;68.67;100262.19;10423505;28;20045;-66
2023/12/28 22:25:25;;;;;;;1.92;1.10;;;;;;;11.51;69.18;100259.22;10422690;28;20049;-67
2023/12/28 22:30:26;;;;;;;1.77;0.80;;;;;;;11.53;68.89;100256.31;10423088;28;20053;-67
2023/12/28 22:35:28;;;;;;;1.70;1.17;;;;;;;11.46;69.30;100241.97;10424140;28;20045;-66
2023/12/28 22:40:30;;;;;;;2.58;1.08;;;;;;;11.49;69.27;100255.88;10418835;28;20119;-64
2023/12/28 22:45:31;;;;;;;1.30;0.90;;;;;;;11.51;69.42;100250.28;10419270;28;20045;-68
2023/12/28 22:50:32;;;;;;;2.33;1.05;;;;;;;11.54;69.63;100249.13;10418686;28;20135;-66
2023/12/28 22:55:34;;;;;;;1.40;1.00;;;;;;;11.52;69.87;100246.59;10418623;28;20132;-67
2023/12/28 23:00:35;;;;;;;2.00;0.70;;;;;;;11.54;69.71;100244.56;10421046;28;20500;-67
2023/12/28 23:05:37;;;;;;;1.42;0.80;;;;;;;11.54;69.72;100249.13;10422481;28;20401;-65
2023/12/28 23:10:38;;;;;;;1.55;0.80;;;;;;;11.57;69.77;100241.50;10417988;28;20044;-66
2023/12/28 23:15:44;;;;;;;0.85;0.60;;;;;;;11.61;69.66;100241.94;10422719;28;20124;-67